Terminal Aerodrome Forecast
Issued by NWS

Home | Current Version | Previous Version | Graphics & Text | Print | Product List | Glossary On
Versions: 1 2 3 4 5 6 7 8 9 10 11 12 13 14 15 16 17 18 19
535
FTUS43 KICT 282128 AAA
TAFSLN
TAF AMD
KSLN 282128Z 2821/2918 10014KT P6SM VCTS SCT020 OVC035CB
      TEMPO 2823/2903 4SM TSRA BKN018CB
     FM290300 09014KT 4SM TSRA OVC015CB=

USA.gov is the U.S. government's official web portal to all federal, state and local government web resources and services.